WetterOnline ( http://www.wetteronline.de )

Wetter aktuell Görlitz

Aktuelles Wetter: Görlitz (240m)

6-stündlich | Neueste Meldungen
Ortszeit Temperatur Wetter
Mo, 20.08. 2:00 19.4° C wolkenlos
So, 19.08. 20:00 27.6° C leicht bewölkt
So, 19.08. 14:00 29.4° C leicht bewölkt
So, 19.08. 8:00 18.1° C wolkig
So, 19.08. 2:00 18.2° C leicht bewölkt
Sa, 18.08. 20:00 25.9° C leicht bewölkt
Sa, 18.08. 14:00 26.8° C wolkig
Sa, 18.08. 8:00 18.3° C wolkig
Ortszeit Temperatur Wetter
Mo, 20.08. 6:30 19.8° C wolkenlos
Mo, 20.08. 6:10 19.2° C wolkenlos
Mo, 20.08. 6:00 19.6° C fast wolkenlos
Mo, 20.08. 5:50 19.6° C wolkenlos
Mo, 20.08. 5:40 19.1° C wolkenlos
Mo, 20.08. 5:30 18.8° C fast wolkenlos
Mo, 20.08. 5:00 20.0° C fast wolkenlos
Mo, 20.08. 4:30 18.1° C wolkenlos
Mo, 20.08. 4:00 18.8° C leicht bewölkt
Mo, 20.08. 3:30 17.9° C wolkig
Ortszeit Relative Feuchte Sichtweite
Mo, 20.08. 2:00 71% 25 km
So, 19.08. 20:00 41% 60 km
So, 19.08. 14:00 37% 60 km
So, 19.08. 8:00 80% 60 km
So, 19.08. 2:00 77% 20 km
Sa, 18.08. 20:00 47% 60 km
Sa, 18.08. 14:00 47% 60 km
Sa, 18.08. 8:00 78% >70 km
Ortszeit Relative Feuchte Sichtweite
Mo, 20.08. 6:30 61% 50 km
Mo, 20.08. 6:10 66% -
Mo, 20.08. 6:00 66% 30 km
Mo, 20.08. 5:50 66% -
Mo, 20.08. 5:40 68% -
Mo, 20.08. 5:30 68% 20 km
Mo, 20.08. 5:00 65% 20 km
Mo, 20.08. 4:30 76% 30 km
Mo, 20.08. 4:00 70% 30 km
Mo, 20.08. 3:30 73% 30 km
Ortszeit Niederschlagsmenge Niederschlagsart
Mo, 20.08. 2:00 0.0 l/m2 in 6 Std. -
So, 19.08. 20:00 0.0 l/m2 in 12 Std. -
So, 19.08. 14:00 0.0 l/m2 in 6 Std. -
So, 19.08. 8:00 0.0 l/m2 in 12 Std. -
So, 19.08. 2:00 0.0 l/m2 in 6 Std. -
Sa, 18.08. 20:00 0.0 l/m2 in 12 Std. -
Sa, 18.08. 14:00 0.0 l/m2 in 6 Std. -
Sa, 18.08. 8:00 0.1 l/m2 in 12 Std. Schauer
Ortszeit Niederschlagsmenge Niederschlagsart
Mo, 20.08. 6:30 0.0 l/m2 in 1 Std. -
Mo, 20.08. 6:10 keine Meldung -
Mo, 20.08. 6:00 0.0 l/m2 in 1 Std. -
Mo, 20.08. 5:50 keine Meldung -
Mo, 20.08. 5:40 keine Meldung -
Mo, 20.08. 5:30 0.0 l/m2 in 1 Std. -
Mo, 20.08. 5:00 0.0 l/m2 in 1 Std. -
Mo, 20.08. 4:30 0.0 l/m2 in 1 Std. -
Mo, 20.08. 4:00 0.0 l/m2 in 1 Std. -
Mo, 20.08. 3:30 0.0 l/m2 in 1 Std. -
Ortszeit Stärke Spitze Richtung
km/h Bft. km/h Grad Sektor
Mo, 20.08. 2:00 4 1 14 180° S
So, 19.08. 20:00 7 2 22 10° N
So, 19.08. 14:00 6 1 19 230° SW
So, 19.08. 8:00 4 1 11 350° N
So, 19.08. 2:00 4 1 14 230° SW
Sa, 18.08. 20:00 6 1 24 330° NW
Sa, 18.08. 14:00 6 1 22 40° NO
Sa, 18.08. 8:00 6 1 44 270° W
Ortszeit Stärke Spitze Richtung
km/h Bft. km/h Grad Sektor
Mo, 20.08. 6:30 7 2 11 260° W
Mo, 20.08. 6:10 7 2 - 250° W
Mo, 20.08. 6:00 7 2 15 260° W
Mo, 20.08. 5:50 7 2 - 260° W
Mo, 20.08. 5:40 7 2 - 240° SW
Mo, 20.08. 5:30 7 2 14 230° SW
Mo, 20.08. 5:00 7 2 11 250° W
Mo, 20.08. 4:30 7 2 7 190° S
Mo, 20.08. 4:00 6 1 11 230° SW
Mo, 20.08. 3:30 4 1 11 230° SW
Ortszeit Untergrenze Bedeckung Gattung
total tief tief mittel hoch
Mo, 20.08. 2:00 - 0/8 0/8 - - -
So, 19.08. 20:00 3900 m 3/8 1/8 - Ac Cs
So, 19.08. 14:00 1500 m 7/8 1/8 Cu - Cs
So, 19.08. 8:00 2100 m 7/8 4/8 Sc - Ci
So, 19.08. 2:00 9000 m 4/8 0/8 - - Cs
Sa, 18.08. 20:00 9000 m 2/8 0/8 - - Ci
Sa, 18.08. 14:00 1230 m 6/8 3/8 Cu - Ci
Sa, 18.08. 8:00 3300 m 7/8 7/8 - As -
Ortszeit Bedeckungsgrad in Achtel und Wolkenuntergrenze
Mo, 20.08. 6:30 keine Wolken
Mo, 20.08. 6:10 keine Wolken
Mo, 20.08. 6:00 1(9000m)
Mo, 20.08. 5:50 keine Wolken
Mo, 20.08. 5:40 keine Wolken
Mo, 20.08. 5:30 1(9000m)
Mo, 20.08. 5:00 1(9000m)
Mo, 20.08. 4:30 1(2400m)
Mo, 20.08. 4:00 3(2400m)
Mo, 20.08. 3:30 4(2100m) 6(2700m)
Ortszeit Luftdruck NN (hPa) Tendenz (hPa in 3 Std.)
Mo, 20.08. 2:00 1016 - 0,6
So, 19.08. 20:00 1016 - 0,9
So, 19.08. 14:00 1019 - 1,8
So, 19.08. 8:00 1022 0,0
So, 19.08. 2:00 1021 + 0,3
Sa, 18.08. 20:00 1019 + 0,2
Sa, 18.08. 14:00 1020 - 0,4
Sa, 18.08. 8:00 1020 + 1,4
Ortszeit Luftdruck NN (hPa) Tendenz (hPa in 3 Std.)
Mo, 20.08. 6:30 1016 0,0
Mo, 20.08. 6:10 1016 keine Meldung
Mo, 20.08. 6:00 1016 - 0,1
Mo, 20.08. 5:50 1016 keine Meldung
Mo, 20.08. 5:40 1016 keine Meldung
Mo, 20.08. 5:30 1016 - 0,2
Mo, 20.08. 5:00 1016 - 0,4
Mo, 20.08. 4:30 1016 - 0,5
Mo, 20.08. 4:00 1016 - 0,5
Mo, 20.08. 3:30 1016 - 0,6
Ortszeit Schneehöhe (cm)
Mo, 20.08. 2:00 0
So, 19.08. 20:00 0
So, 19.08. 14:00 0
So, 19.08. 8:00 0
So, 19.08. 2:00 0
Sa, 18.08. 20:00 0
Sa, 18.08. 14:00 0
Sa, 18.08. 8:00 0
Ortszeit Schneehöhe (cm)
Mo, 20.08. 6:30 -
Mo, 20.08. 6:10 -
Mo, 20.08. 6:00 -
Mo, 20.08. 5:50 -
Mo, 20.08. 5:40 -
Mo, 20.08. 5:30 -
Mo, 20.08. 5:00 -
Mo, 20.08. 4:30 -
Mo, 20.08. 4:00 -
Mo, 20.08. 3:30 -
Link zu dieser Seite / Seite empfehlen

Das Wetter in ...